sensor_id;sensor_type;location;lat;lon;timestamp;P1;durP1;ratioP1;P2;durP2;ratioP2
73107;SDS011;61559;50.476;15.588;2023-03-01T00:00:20;15.00;;;6.90;;
73107;SDS011;61559;50.476;15.588;2023-03-01T00:03:11;14.40;;;6.30;;
73107;SDS011;61559;50.476;15.588;2023-03-01T00:05:44;15.30;;;6.70;;
73107;SDS011;61559;50.476;15.588;2023-03-01T00:08:16;15.60;;;6.50;;
73107;SDS011;61559;50.476;15.588;2023-03-01T00:10:47;15.40;;;7.10;;
73107;SDS011;61559;50.476;15.588;2023-03-01T00:13:18;13.30;;;6.00;;
73107;SDS011;61559;50.476;15.588;2023-03-01T00:15:49;14.80;;;7.00;;
73107;SDS011;61559;50.476;15.588;2023-03-01T00:18:20;15.10;;;6.20;;
73107;SDS011;61559;50.476;15.588;2023-03-01T00:20:52;16.40;;;7.50;;
73107;SDS011;61559;50.476;15.588;2023-03-01T00:23:25;17.30;;;7.30;;
73107;SDS011;61559;50.476;15.588;2023-03-01T00:25:57;17.30;;;7.40;;
73107;SDS011;61559;50.476;15.588;2023-03-01T00:28:28;15.40;;;7.40;;
73107;SDS011;61559;50.476;15.588;2023-03-01T00:31:03;15.60;;;7.10;;
73107;SDS011;61559;50.476;15.588;2023-03-01T00:33:35;12.80;;;6.00;;
73107;SDS011;61559;50.476;15.588;2023-03-01T00:36:07;14.50;;;7.20;;
73107;SDS011;61559;50.476;15.588;2023-03-01T00:38:39;12.80;;;5.80;;
73107;SDS011;61559;50.476;15.588;2023-03-01T00:41:13;13.50;;;7.20;;
73107;SDS011;61559;50.476;15.588;2023-03-01T00:43:45;17.50;;;7.70;;
73107;SDS011;61559;50.476;15.588;2023-03-01T00:46:18;15.70;;;7.30;;
73107;SDS011;61559;50.476;15.588;2023-03-01T00:48:50;17.90;;;8.00;;
73107;SDS011;61559;50.476;15.588;2023-03-01T00:51:22;13.00;;;6.70;;
73107;SDS011;61559;50.476;15.588;2023-03-01T00:53:55;19.70;;;8.40;;
73107;SDS011;61559;50.476;15.588;2023-03-01T00:56:28;17.30;;;7.90;;
73107;SDS011;61559;50.476;15.588;2023-03-01T00:59:00;18.20;;;8.00;;
73107;SDS011;61559;50.476;15.588;2023-03-01T01:01:31;17.10;;;8.30;;
73107;SDS011;61559;50.476;15.588;2023-03-01T01:04:03;16.30;;;7.10;;
73107;SDS011;61559;50.476;15.588;2023-03-01T01:06:37;11.20;;;5.20;;
73107;SDS011;61559;50.476;15.588;2023-03-01T01:09:10;17.60;;;7.40;;
73107;SDS011;61559;50.476;15.588;2023-03-01T01:11:45;21.70;;;9.50;;
73107;SDS011;61559;50.476;15.588;2023-03-01T01:14:19;19.70;;;8.90;;
73107;SDS011;61559;50.476;15.588;2023-03-01T01:16:50;18.10;;;8.10;;
73107;SDS011;61559;50.476;15.588;2023-03-01T01:19:21;16.40;;;7.60;;
73107;SDS011;61559;50.476;15.588;2023-03-01T01:21:53;21.10;;;9.40;;
73107;SDS011;61559;50.476;15.588;2023-03-01T01:24:24;16.80;;;8.00;;
73107;SDS011;61559;50.476;15.588;2023-03-01T01:26:55;18.30;;;8.50;;
73107;SDS011;61559;50.476;15.588;2023-03-01T01:29:27;17.20;;;8.20;;
73107;SDS011;61559;50.476;15.588;2023-03-01T01:31:58;19.70;;;9.00;;
73107;SDS011;61559;50.476;15.588;2023-03-01T01:34:29;16.50;;;7.40;;
73107;SDS011;61559;50.476;15.588;2023-03-01T01:37:00;17.50;;;9.10;;
73107;SDS011;61559;50.476;15.588;2023-03-01T01:39:35;19.60;;;8.50;;
73107;SDS011;61559;50.476;15.588;2023-03-01T01:42:08;18.80;;;8.50;;
73107;SDS011;61559;50.476;15.588;2023-03-01T01:44:46;18.60;;;8.30;;
73107;SDS011;61559;50.476;15.588;2023-03-01T01:47:18;21.80;;;8.70;;
73107;SDS011;61559;50.476;15.588;2023-03-01T01:49:52;17.20;;;8.70;;
73107;SDS011;61559;50.476;15.588;2023-03-01T01:52:25;20.10;;;8.90;;
73107;SDS011;61559;50.476;15.588;2023-03-01T01:55:01;17.20;;;9.00;;
73107;SDS011;61559;50.476;15.588;2023-03-01T01:57:37;17.10;;;8.10;;
73107;SDS011;61559;50.476;15.588;2023-03-01T02:00:12;19.90;;;8.20;;
73107;SDS011;61559;50.476;15.588;2023-03-01T02:02:51;18.40;;;8.10;;
73107;SDS011;61559;50.476;15.588;2023-03-01T02:05:26;18.20;;;8.30;;
73107;SDS011;61559;50.476;15.588;2023-03-01T02:08:02;15.20;;;8.50;;
73107;SDS011;61559;50.476;15.588;2023-03-01T02:10:34;17.40;;;8.60;;
73107;SDS011;61559;50.476;15.588;2023-03-01T02:13:06;21.20;;;9.00;;
73107;SDS011;61559;50.476;15.588;2023-03-01T02:15:38;19.60;;;8.10;;
73107;SDS011;61559;50.476;15.588;2023-03-01T02:18:14;19.50;;;8.30;;
73107;SDS011;61559;50.476;15.588;2023-03-01T02:20:50;19.40;;;9.40;;
73107;SDS011;61559;50.476;15.588;2023-03-01T02:23:33;13.90;;;7.10;;
73107;SDS011;61559;50.476;15.588;2023-03-01T02:26:05;19.00;;;7.70;;
73107;SDS011;61559;50.476;15.588;2023-03-01T02:28:42;17.70;;;8.50;;
73107;SDS011;61559;50.476;15.588;2023-03-01T02:31:15;16.70;;;7.90;;
73107;SDS011;61559;50.476;15.588;2023-03-01T02:34:06;18.40;;;7.50;;
73107;SDS011;61559;50.476;15.588;2023-03-01T02:36:40;21.20;;;9.60;;
73107;SDS011;61559;50.476;15.588;2023-03-01T02:39:16;16.60;;;7.40;;
73107;SDS011;61559;50.476;15.588;2023-03-01T02:41:53;15.70;;;7.70;;
73107;SDS011;61559;50.476;15.588;2023-03-01T02:44:25;17.60;;;7.80;;
73107;SDS011;61559;50.476;15.588;2023-03-01T02:46:56;19.80;;;8.40;;
73107;SDS011;61559;50.476;15.588;2023-03-01T02:49:33;17.30;;;7.60;;
73107;SDS011;61559;50.476;15.588;2023-03-01T02:55:00;20.40;;;8.10;;
73107;SDS011;61559;50.476;15.588;2023-03-01T02:57:36;17.90;;;7.30;;
73107;SDS011;61559;50.476;15.588;2023-03-01T03:00:13;18.00;;;8.10;;
73107;SDS011;61559;50.476;15.588;2023-03-01T03:02:49;19.90;;;8.20;;
73107;SDS011;61559;50.476;15.588;2023-03-01T03:05:22;14.70;;;6.80;;
73107;SDS011;61559;50.476;15.588;2023-03-01T03:07:56;15.20;;;7.50;;
73107;SDS011;61559;50.476;15.588;2023-03-01T03:10:30;16.30;;;8.10;;
73107;SDS011;61559;50.476;15.588;2023-03-01T03:13:03;19.80;;;8.20;;
73107;SDS011;61559;50.476;15.588;2023-03-01T03:15:36;16.70;;;7.60;;
73107;SDS011;61559;50.476;15.588;2023-03-01T03:18:09;14.60;;;6.50;;
73107;SDS011;61559;50.476;15.588;2023-03-01T03:20:42;15.60;;;7.40;;
73107;SDS011;61559;50.476;15.588;2023-03-01T03:23:14;17.80;;;8.40;;
73107;SDS011;61559;50.476;15.588;2023-03-01T03:25:47;21.70;;;8.00;;
73107;SDS011;61559;50.476;15.588;2023-03-01T03:28:31;18.20;;;7.20;;
73107;SDS011;61559;50.476;15.588;2023-03-01T03:31:05;17.40;;;8.20;;
73107;SDS011;61559;50.476;15.588;2023-03-01T03:33:36;14.80;;;7.10;;
73107;SDS011;61559;50.476;15.588;2023-03-01T03:36:08;18.00;;;8.10;;
73107;SDS011;61559;50.476;15.588;2023-03-01T03:38:45;18.40;;;8.20;;
73107;SDS011;61559;50.476;15.588;2023-03-01T03:41:16;19.00;;;8.30;;
73107;SDS011;61559;50.476;15.588;2023-03-01T03:43:47;20.90;;;8.20;;
73107;SDS011;61559;50.476;15.588;2023-03-01T03:46:19;19.60;;;9.00;;
73107;SDS011;61559;50.476;15.588;2023-03-01T03:48:50;17.20;;;8.10;;
73107;SDS011;61559;50.476;15.588;2023-03-01T03:51:21;18.70;;;8.80;;
73107;SDS011;61559;50.476;15.588;2023-03-01T03:53:52;22.40;;;8.90;;
73107;SDS011;61559;50.476;15.588;2023-03-01T03:56:24;18.40;;;9.50;;
73107;SDS011;61559;50.476;15.588;2023-03-01T03:58:56;32.20;;;13.40;;
73107;SDS011;61559;50.476;15.588;2023-03-01T04:01:27;30.00;;;12.20;;
73107;SDS011;61559;50.476;15.588;2023-03-01T04:03:58;23.60;;;10.90;;
73107;SDS011;61559;50.476;15.588;2023-03-01T04:06:32;20.10;;;8.80;;
73107;SDS011;61559;50.476;15.588;2023-03-01T04:09:03;24.10;;;10.10;;
73107;SDS011;61559;50.476;15.588;2023-03-01T04:11:34;23.00;;;9.90;;
73107;SDS011;61559;50.476;15.588;2023-03-01T04:14:06;21.40;;;9.70;;
73107;SDS011;61559;50.476;15.588;2023-03-01T04:16:38;20.30;;;10.00;;
73107;SDS011;61559;50.476;15.588;2023-03-01T04:19:09;22.00;;;9.00;;
73107;SDS011;61559;50.476;15.588;2023-03-01T04:21:43;18.40;;;8.70;;
73107;SDS011;61559;50.476;15.588;2023-03-01T04:24:14;22.00;;;9.20;;
73107;SDS011;61559;50.476;15.588;2023-03-01T04:26:45;19.20;;;9.40;;
73107;SDS011;61559;50.476;15.588;2023-03-01T04:29:19;14.00;;;6.60;;
73107;SDS011;61559;50.476;15.588;2023-03-01T04:31:51;15.20;;;7.00;;
73107;SDS011;61559;50.476;15.588;2023-03-01T04:34:22;18.60;;;8.60;;
73107;SDS011;61559;50.476;15.588;2023-03-01T04:36:54;21.00;;;9.20;;
73107;SDS011;61559;50.476;15.588;2023-03-01T04:39:26;29.70;;;11.40;;
73107;SDS011;61559;50.476;15.588;2023-03-01T04:41:57;27.10;;;12.20;;
73107;SDS011;61559;50.476;15.588;2023-03-01T04:44:28;19.60;;;9.10;;
73107;SDS011;61559;50.476;15.588;2023-03-01T04:46:59;17.40;;;9.10;;
73107;SDS011;61559;50.476;15.588;2023-03-01T04:49:30;18.50;;;8.10;;
73107;SDS011;61559;50.476;15.588;2023-03-01T04:52:02;21.70;;;9.60;;
73107;SDS011;61559;50.476;15.588;2023-03-01T04:54:34;23.40;;;9.70;;
73107;SDS011;61559;50.476;15.588;2023-03-01T04:59:35;22.70;;;9.80;;
73107;SDS011;61559;50.476;15.588;2023-03-01T05:02:06;24.20;;;9.90;;
73107;SDS011;61559;50.476;15.588;2023-03-01T05:04:37;22.00;;;10.30;;
73107;SDS011;61559;50.476;15.588;2023-03-01T05:07:08;24.60;;;12.30;;
73107;SDS011;61559;50.476;15.588;2023-03-01T05:09:41;20.10;;;8.70;;
73107;SDS011;61559;50.476;15.588;2023-03-01T05:12:12;20.40;;;9.60;;
73107;SDS011;61559;50.476;15.588;2023-03-01T05:17:13;17.60;;;8.30;;
73107;SDS011;61559;50.476;15.588;2023-03-01T05:19:44;17.90;;;8.80;;
73107;SDS011;61559;50.476;15.588;2023-03-01T05:22:15;20.00;;;8.70;;
73107;SDS011;61559;50.476;15.588;2023-03-01T05:24:47;17.10;;;8.00;;
73107;SDS011;61559;50.476;15.588;2023-03-01T05:27:18;20.20;;;8.70;;
73107;SDS011;61559;50.476;15.588;2023-03-01T05:29:50;17.40;;;7.90;;
73107;SDS011;61559;50.476;15.588;2023-03-01T05:32:21;19.80;;;9.60;;
73107;SDS011;61559;50.476;15.588;2023-03-01T05:34:52;19.10;;;9.10;;
73107;SDS011;61559;50.476;15.588;2023-03-01T05:37:23;19.60;;;9.00;;
73107;SDS011;61559;50.476;15.588;2023-03-01T05:39:54;24.10;;;9.40;;
73107;SDS011;61559;50.476;15.588;2023-03-01T05:42:26;20.00;;;8.80;;
73107;SDS011;61559;50.476;15.588;2023-03-01T05:44:57;20.40;;;8.60;;
73107;SDS011;61559;50.476;15.588;2023-03-01T05:49:59;23.80;;;8.60;;
73107;SDS011;61559;50.476;15.588;2023-03-01T05:52:30;18.90;;;8.90;;
73107;SDS011;61559;50.476;15.588;2023-03-01T05:55:02;17.90;;;9.10;;
73107;SDS011;61559;50.476;15.588;2023-03-01T05:57:34;27.30;;;11.40;;
73107;SDS011;61559;50.476;15.588;2023-03-01T06:00:06;22.70;;;9.80;;
73107;SDS011;61559;50.476;15.588;2023-03-01T06:02:41;22.30;;;9.70;;
73107;SDS011;61559;50.476;15.588;2023-03-01T06:05:12;22.10;;;9.80;;
73107;SDS011;61559;50.476;15.588;2023-03-01T06:07:44;22.70;;;10.00;;
73107;SDS011;61559;50.476;15.588;2023-03-01T06:10:16;27.50;;;12.90;;
73107;SDS011;61559;50.476;15.588;2023-03-01T06:12:49;26.00;;;11.30;;
73107;SDS011;61559;50.476;15.588;2023-03-01T06:15:20;25.90;;;12.70;;
73107;SDS011;61559;50.476;15.588;2023-03-01T06:17:53;25.60;;;11.00;;
73107;SDS011;61559;50.476;15.588;2023-03-01T06:20:27;21.60;;;9.80;;
73107;SDS011;61559;50.476;15.588;2023-03-01T06:22:59;21.70;;;10.80;;
73107;SDS011;61559;50.476;15.588;2023-03-01T06:25:30;22.90;;;10.50;;
73107;SDS011;61559;50.476;15.588;2023-03-01T06:28:01;19.50;;;10.80;;
73107;SDS011;61559;50.476;15.588;2023-03-01T06:30:32;27.10;;;11.30;;
73107;SDS011;61559;50.476;15.588;2023-03-01T06:33:03;20.10;;;9.80;;
73107;SDS011;61559;50.476;15.588;2023-03-01T06:35:34;31.50;;;14.00;;
73107;SDS011;61559;50.476;15.588;2023-03-01T06:38:06;31.60;;;14.10;;
73107;SDS011;61559;50.476;15.588;2023-03-01T06:40:37;30.30;;;12.60;;
73107;SDS011;61559;50.476;15.588;2023-03-01T06:43:08;24.90;;;10.80;;
73107;SDS011;61559;50.476;15.588;2023-03-01T06:45:39;27.20;;;11.30;;
73107;SDS011;61559;50.476;15.588;2023-03-01T06:48:11;22.40;;;9.10;;
73107;SDS011;61559;50.476;15.588;2023-03-01T06:50:42;17.50;;;9.00;;
73107;SDS011;61559;50.476;15.588;2023-03-01T06:53:13;22.50;;;9.20;;
73107;SDS011;61559;50.476;15.588;2023-03-01T06:55:44;17.40;;;7.90;;
73107;SDS011;61559;50.476;15.588;2023-03-01T06:58:15;17.20;;;7.20;;
73107;SDS011;61559;50.476;15.588;2023-03-01T07:00:46;11.20;;;5.80;;
73107;SDS011;61559;50.476;15.588;2023-03-01T07:03:17;15.60;;;7.10;;
73107;SDS011;61559;50.476;15.588;2023-03-01T07:05:49;15.50;;;7.00;;
73107;SDS011;61559;50.476;15.588;2023-03-01T07:08:21;15.70;;;7.90;;
73107;SDS011;61559;50.476;15.588;2023-03-01T07:10:56;16.50;;;7.60;;
73107;SDS011;61559;50.476;15.588;2023-03-01T07:13:30;19.30;;;7.70;;
73107;SDS011;61559;50.476;15.588;2023-03-01T07:16:01;9.00;;;5.00;;
73107;SDS011;61559;50.476;15.588;2023-03-01T07:18:32;11.90;;;6.70;;
73107;SDS011;61559;50.476;15.588;2023-03-01T07:21:07;14.60;;;6.40;;
73107;SDS011;61559;50.476;15.588;2023-03-01T07:26:11;14.40;;;5.90;;
73107;SDS011;61559;50.476;15.588;2023-03-01T07:28:42;13.60;;;6.20;;
73107;SDS011;61559;50.476;15.588;2023-03-01T07:31:13;18.20;;;6.70;;
73107;SDS011;61559;50.476;15.588;2023-03-01T07:33:45;16.60;;;6.30;;
73107;SDS011;61559;50.476;15.588;2023-03-01T07:36:18;12.20;;;5.10;;
73107;SDS011;61559;50.476;15.588;2023-03-01T07:38:49;12.00;;;5.60;;
73107;SDS011;61559;50.476;15.588;2023-03-01T07:41:21;21.20;;;6.90;;
73107;SDS011;61559;50.476;15.588;2023-03-01T07:43:52;17.00;;;5.50;;
73107;SDS011;61559;50.476;15.588;2023-03-01T07:46:23;16.60;;;7.50;;
73107;SDS011;61559;50.476;15.588;2023-03-01T07:48:54;20.00;;;8.00;;
73107;SDS011;61559;50.476;15.588;2023-03-01T07:51:26;18.40;;;8.60;;
73107;SDS011;61559;50.476;15.588;2023-03-01T07:53:57;17.70;;;7.60;;
73107;SDS011;61559;50.476;15.588;2023-03-01T07:56:28;16.60;;;8.00;;
73107;SDS011;61559;50.476;15.588;2023-03-01T08:01:29;16.00;;;6.80;;
73107;SDS011;61559;50.476;15.588;2023-03-01T08:04:00;13.50;;;6.90;;
73107;SDS011;61559;50.476;15.588;2023-03-01T08:06:35;12.90;;;5.40;;
73107;SDS011;61559;50.476;15.588;2023-03-01T08:09:06;14.80;;;5.30;;
73107;SDS011;61559;50.476;15.588;2023-03-01T08:11:37;18.40;;;7.50;;
73107;SDS011;61559;50.476;15.588;2023-03-01T08:14:08;15.40;;;7.50;;
73107;SDS011;61559;50.476;15.588;2023-03-01T08:16:40;14.60;;;8.30;;
73107;SDS011;61559;50.476;15.588;2023-03-01T08:19:11;13.00;;;6.90;;
73107;SDS011;61559;50.476;15.588;2023-03-01T08:21:42;16.40;;;7.70;;
73107;SDS011;61559;50.476;15.588;2023-03-01T08:24:13;12.30;;;4.90;;
73107;SDS011;61559;50.476;15.588;2023-03-01T08:26:44;16.70;;;7.40;;
73107;SDS011;61559;50.476;15.588;2023-03-01T08:29:16;14.90;;;6.60;;
73107;SDS011;61559;50.476;15.588;2023-03-01T08:31:47;10.20;;;5.10;;
73107;SDS011;61559;50.476;15.588;2023-03-01T08:34:18;15.10;;;7.50;;
73107;SDS011;61559;50.476;15.588;2023-03-01T08:36:49;19.40;;;7.90;;
73107;SDS011;61559;50.476;15.588;2023-03-01T08:39:20;14.60;;;6.90;;
73107;SDS011;61559;50.476;15.588;2023-03-01T08:41:51;14.80;;;6.70;;
73107;SDS011;61559;50.476;15.588;2023-03-01T08:44:22;15.90;;;7.50;;
73107;SDS011;61559;50.476;15.588;2023-03-01T08:46:54;17.50;;;7.10;;
73107;SDS011;61559;50.476;15.588;2023-03-01T08:49:25;17.10;;;6.70;;
73107;SDS011;61559;50.476;15.588;2023-03-01T08:51:56;13.20;;;5.80;;
73107;SDS011;61559;50.476;15.588;2023-03-01T08:54:28;16.20;;;6.10;;
73107;SDS011;61559;50.476;15.588;2023-03-01T08:56:59;12.50;;;5.50;;
73107;SDS011;61559;50.476;15.588;2023-03-01T08:59:31;14.90;;;6.40;;
73107;SDS011;61559;50.476;15.588;2023-03-01T09:02:05;14.00;;;6.00;;
73107;SDS011;61559;50.476;15.588;2023-03-01T09:04:40;14.50;;;7.20;;
73107;SDS011;61559;50.476;15.588;2023-03-01T09:07:12;16.30;;;6.40;;
73107;SDS011;61559;50.476;15.588;2023-03-01T09:09:43;14.40;;;7.30;;
73107;SDS011;61559;50.476;15.588;2023-03-01T09:12:14;11.30;;;5.60;;
73107;SDS011;61559;50.476;15.588;2023-03-01T09:14:45;19.20;;;7.90;;
73107;SDS011;61559;50.476;15.588;2023-03-01T09:17:16;15.50;;;7.20;;
73107;SDS011;61559;50.476;15.588;2023-03-01T09:19:49;10.80;;;5.90;;
73107;SDS011;61559;50.476;15.588;2023-03-01T09:22:20;12.90;;;6.10;;
73107;SDS011;61559;50.476;15.588;2023-03-01T09:24:51;12.30;;;7.00;;
73107;SDS011;61559;50.476;15.588;2023-03-01T09:27:24;15.00;;;6.30;;
73107;SDS011;61559;50.476;15.588;2023-03-01T09:29:55;13.60;;;6.30;;
73107;SDS011;61559;50.476;15.588;2023-03-01T09:32:26;14.60;;;7.40;;
73107;SDS011;61559;50.476;15.588;2023-03-01T09:34:58;14.50;;;6.80;;
73107;SDS011;61559;50.476;15.588;2023-03-01T09:37:33;13.20;;;6.30;;
73107;SDS011;61559;50.476;15.588;2023-03-01T09:40:06;13.10;;;6.70;;
73107;SDS011;61559;50.476;15.588;2023-03-01T09:42:55;13.50;;;6.00;;
73107;SDS011;61559;50.476;15.588;2023-03-01T09:45:32;16.00;;;7.00;;
73107;SDS011;61559;50.476;15.588;2023-03-01T09:48:05;10.10;;;4.70;;
73107;SDS011;61559;50.476;15.588;2023-03-01T09:50:45;16.50;;;7.80;;
73107;SDS011;61559;50.476;15.588;2023-03-01T09:53:17;15.50;;;7.50;;
73107;SDS011;61559;50.476;15.588;2023-03-01T09:55:54;14.40;;;6.00;;
73107;SDS011;61559;50.476;15.588;2023-03-01T09:58:39;18.10;;;6.70;;
73107;SDS011;61559;50.476;15.588;2023-03-01T10:01:33;11.50;;;5.40;;
73107;SDS011;61559;50.476;15.588;2023-03-01T10:04:23;12.30;;;6.20;;
73107;SDS011;61559;50.476;15.588;2023-03-01T10:07:01;11.10;;;5.70;;
73107;SDS011;61559;50.476;15.588;2023-03-01T10:09:44;10.60;;;5.30;;
73107;SDS011;61559;50.476;15.588;2023-03-01T10:12:17;11.00;;;5.10;;
73107;SDS011;61559;50.476;15.588;2023-03-01T10:14:54;11.50;;;6.00;;
73107;SDS011;61559;50.476;15.588;2023-03-01T10:17:33;10.10;;;5.10;;
73107;SDS011;61559;50.476;15.588;2023-03-01T10:20:13;13.50;;;6.30;;
73107;SDS011;61559;50.476;15.588;2023-03-01T10:22:50;10.80;;;6.00;;
73107;SDS011;61559;50.476;15.588;2023-03-01T10:25:27;14.10;;;5.80;;
73107;SDS011;61559;50.476;15.588;2023-03-01T10:28:16;11.00;;;5.70;;
73107;SDS011;61559;50.476;15.588;2023-03-01T10:30:52;11.20;;;5.40;;
73107;SDS011;61559;50.476;15.588;2023-03-01T10:33:24;9.20;;;4.30;;
73107;SDS011;61559;50.476;15.588;2023-03-01T10:35:58;10.80;;;5.80;;
73107;SDS011;61559;50.476;15.588;2023-03-01T10:38:29;12.70;;;6.30;;
73107;SDS011;61559;50.476;15.588;2023-03-01T10:41:16;10.90;;;5.80;;
73107;SDS011;61559;50.476;15.588;2023-03-01T10:43:48;11.20;;;6.20;;
73107;SDS011;61559;50.476;15.588;2023-03-01T10:46:29;11.80;;;5.40;;
73107;SDS011;61559;50.476;15.588;2023-03-01T10:49:13;12.30;;;5.60;;
73107;SDS011;61559;50.476;15.588;2023-03-01T10:51:48;10.50;;;5.40;;
73107;SDS011;61559;50.476;15.588;2023-03-01T10:54:22;10.60;;;5.60;;
73107;SDS011;61559;50.476;15.588;2023-03-01T10:56:56;11.70;;;5.90;;
73107;SDS011;61559;50.476;15.588;2023-03-01T10:59:30;18.40;;;7.40;;
73107;SDS011;61559;50.476;15.588;2023-03-01T11:02:03;12.40;;;5.90;;
73107;SDS011;61559;50.476;15.588;2023-03-01T11:04:59;12.50;;;6.60;;
73107;SDS011;61559;50.476;15.588;2023-03-01T11:07:47;23.70;;;9.80;;
73107;SDS011;61559;50.476;15.588;2023-03-01T11:10:22;22.60;;;8.60;;
73107;SDS011;61559;50.476;15.588;2023-03-01T11:13:05;21.00;;;8.20;;
73107;SDS011;61559;50.476;15.588;2023-03-01T11:15:37;16.10;;;8.20;;
73107;SDS011;61559;50.476;15.588;2023-03-01T11:18:18;13.70;;;6.50;;
73107;SDS011;61559;50.476;15.588;2023-03-01T11:21:04;13.90;;;6.20;;
73107;SDS011;61559;50.476;15.588;2023-03-01T11:23:37;10.30;;;6.30;;
73107;SDS011;61559;50.476;15.588;2023-03-01T11:26:11;14.40;;;5.80;;
73107;SDS011;61559;50.476;15.588;2023-03-01T11:28:45;23.20;;;9.70;;
73107;SDS011;61559;50.476;15.588;2023-03-01T11:31:23;13.20;;;6.60;;
73107;SDS011;61559;50.476;15.588;2023-03-01T11:33:57;12.50;;;6.40;;
73107;SDS011;61559;50.476;15.588;2023-03-01T11:36:32;12.00;;;6.80;;
73107;SDS011;61559;50.476;15.588;2023-03-01T11:39:15;12.70;;;6.50;;
73107;SDS011;61559;50.476;15.588;2023-03-01T11:42:00;15.00;;;6.80;;
73107;SDS011;61559;50.476;15.588;2023-03-01T11:44:46;11.10;;;6.40;;
73107;SDS011;61559;50.476;15.588;2023-03-01T11:47:24;10.90;;;6.00;;
73107;SDS011;61559;50.476;15.588;2023-03-01T11:50:11;8.60;;;4.80;;
73107;SDS011;61559;50.476;15.588;2023-03-01T11:52:55;10.90;;;5.00;;
73107;SDS011;61559;50.476;15.588;2023-03-01T11:56:00;6.40;;;3.80;;
73107;SDS011;61559;50.476;15.588;2023-03-01T11:58:43;6.80;;;3.90;;
73107;SDS011;61559;50.476;15.588;2023-03-01T12:01:34;7.40;;;3.90;;
73107;SDS011;61559;50.476;15.588;2023-03-01T12:04:26;5.50;;;3.00;;
73107;SDS011;61559;50.476;15.588;2023-03-01T12:07:15;5.80;;;3.40;;
73107;SDS011;61559;50.476;15.588;2023-03-01T12:12:59;7.30;;;3.20;;
73107;SDS011;61559;50.476;15.588;2023-03-01T12:18:40;6.40;;;2.80;;
73107;SDS011;61559;50.476;15.588;2023-03-01T12:21:24;6.10;;;2.60;;
73107;SDS011;61559;50.476;15.588;2023-03-01T12:24:19;5.80;;;3.00;;
73107;SDS011;61559;50.476;15.588;2023-03-01T12:27:10;5.20;;;2.70;;
73107;SDS011;61559;50.476;15.588;2023-03-01T12:29:55;6.80;;;3.40;;
73107;SDS011;61559;50.476;15.588;2023-03-01T12:32:40;9.30;;;4.40;;
73107;SDS011;61559;50.476;15.588;2023-03-01T12:35:28;8.40;;;4.60;;
73107;SDS011;61559;50.476;15.588;2023-03-01T12:38:15;8.40;;;4.60;;
73107;SDS011;61559;50.476;15.588;2023-03-01T12:40:59;12.90;;;5.40;;
73107;SDS011;61559;50.476;15.588;2023-03-01T12:43:44;12.60;;;6.20;;
73107;SDS011;61559;50.476;15.588;2023-03-01T12:46:28;11.50;;;6.00;;
73107;SDS011;61559;50.476;15.588;2023-03-01T12:49:08;11.60;;;5.80;;
73107;SDS011;61559;50.476;15.588;2023-03-01T12:51:43;16.40;;;7.20;;
73107;SDS011;61559;50.476;15.588;2023-03-01T12:54:20;12.80;;;6.20;;
73107;SDS011;61559;50.476;15.588;2023-03-01T12:56:59;13.00;;;7.20;;
73107;SDS011;61559;50.476;15.588;2023-03-01T12:59:39;15.30;;;7.20;;
73107;SDS011;61559;50.476;15.588;2023-03-01T13:02:19;13.50;;;6.20;;
73107;SDS011;61559;50.476;15.588;2023-03-01T13:04:57;13.60;;;6.60;;
73107;SDS011;61559;50.476;15.588;2023-03-01T13:07:36;13.90;;;8.00;;
73107;SDS011;61559;50.476;15.588;2023-03-01T13:10:14;11.80;;;5.80;;
73107;SDS011;61559;50.476;15.588;2023-03-01T13:13:00;10.90;;;6.30;;
73107;SDS011;61559;50.476;15.588;2023-03-01T13:15:41;11.00;;;6.00;;
73107;SDS011;61559;50.476;15.588;2023-03-01T13:21:03;12.40;;;5.70;;
73107;SDS011;61559;50.476;15.588;2023-03-01T13:23:38;14.00;;;5.90;;
73107;SDS011;61559;50.476;15.588;2023-03-01T13:26:11;12.70;;;6.40;;
73107;SDS011;61559;50.476;15.588;2023-03-01T13:28:48;10.50;;;5.70;;
73107;SDS011;61559;50.476;15.588;2023-03-01T13:37:53;10.10;;;5.30;;
73107;SDS011;61559;50.476;15.588;2023-03-01T13:41:01;8.80;;;5.30;;
73107;SDS011;61559;50.476;15.588;2023-03-01T13:43:34;8.10;;;4.60;;
73107;SDS011;61559;50.476;15.588;2023-03-01T13:46:11;6.30;;;3.80;;
73107;SDS011;61559;50.476;15.588;2023-03-01T13:48:47;10.60;;;5.40;;
73107;SDS011;61559;50.476;15.588;2023-03-01T13:51:22;10.20;;;5.20;;
73107;SDS011;61559;50.476;15.588;2023-03-01T13:53:55;12.90;;;6.30;;
73107;SDS011;61559;50.476;15.588;2023-03-01T13:56:28;12.30;;;6.50;;
73107;SDS011;61559;50.476;15.588;2023-03-01T13:59:06;15.60;;;8.30;;
73107;SDS011;61559;50.476;15.588;2023-03-01T14:01:44;21.50;;;8.30;;
73107;SDS011;61559;50.476;15.588;2023-03-01T14:04:23;17.80;;;7.60;;
73107;SDS011;61559;50.476;15.588;2023-03-01T14:07:09;15.00;;;6.70;;
73107;SDS011;61559;50.476;15.588;2023-03-01T14:09:43;13.10;;;6.30;;
73107;SDS011;61559;50.476;15.588;2023-03-01T14:12:20;15.70;;;7.40;;
73107;SDS011;61559;50.476;15.588;2023-03-01T14:14:57;15.20;;;7.20;;
73107;SDS011;61559;50.476;15.588;2023-03-01T14:23:10;18.30;;;8.60;;
73107;SDS011;61559;50.476;15.588;2023-03-01T14:25:47;21.20;;;9.00;;
73107;SDS011;61559;50.476;15.588;2023-03-01T14:28:21;20.20;;;9.20;;
73107;SDS011;61559;50.476;15.588;2023-03-01T14:30:55;19.10;;;10.30;;
73107;SDS011;61559;50.476;15.588;2023-03-01T14:33:28;19.00;;;8.80;;
73107;SDS011;61559;50.476;15.588;2023-03-01T14:36:03;16.50;;;7.40;;
73107;SDS011;61559;50.476;15.588;2023-03-01T14:38:36;16.40;;;7.90;;
73107;SDS011;61559;50.476;15.588;2023-03-01T14:41:08;17.40;;;8.20;;
73107;SDS011;61559;50.476;15.588;2023-03-01T14:43:44;18.00;;;8.30;;
73107;SDS011;61559;50.476;15.588;2023-03-01T14:46:20;13.00;;;6.10;;
73107;SDS011;61559;50.476;15.588;2023-03-01T14:48:54;19.70;;;8.10;;
73107;SDS011;61559;50.476;15.588;2023-03-01T14:51:30;19.50;;;8.80;;
73107;SDS011;61559;50.476;15.588;2023-03-01T14:54:04;10.40;;;5.80;;
73107;SDS011;61559;50.476;15.588;2023-03-01T14:56:47;15.00;;;7.70;;
73107;SDS011;61559;50.476;15.588;2023-03-01T14:59:21;15.00;;;7.90;;
73107;SDS011;61559;50.476;15.588;2023-03-01T15:01:53;15.00;;;7.20;;
73107;SDS011;61559;50.476;15.588;2023-03-01T15:04:27;14.90;;;7.70;;
73107;SDS011;61559;50.476;15.588;2023-03-01T15:07:00;14.40;;;6.60;;
73107;SDS011;61559;50.476;15.588;2023-03-01T15:09:33;15.50;;;8.60;;
73107;SDS011;61559;50.476;15.588;2023-03-01T15:15:29;16.90;;;7.90;;
73107;SDS011;61559;50.476;15.588;2023-03-01T15:18:16;15.60;;;6.40;;
73107;SDS011;61559;50.476;15.588;2023-03-01T15:20:49;18.90;;;9.10;;
73107;SDS011;61559;50.476;15.588;2023-03-01T15:23:23;15.10;;;8.20;;
73107;SDS011;61559;50.476;15.588;2023-03-01T15:25:56;14.70;;;7.00;;
73107;SDS011;61559;50.476;15.588;2023-03-01T15:28:29;19.80;;;8.40;;
73107;SDS011;61559;50.476;15.588;2023-03-01T15:31:04;20.10;;;9.00;;
73107;SDS011;61559;50.476;15.588;2023-03-01T15:33:44;16.50;;;7.90;;
73107;SDS011;61559;50.476;15.588;2023-03-01T15:36:32;17.20;;;6.70;;
73107;SDS011;61559;50.476;15.588;2023-03-01T15:42:08;19.00;;;9.30;;
73107;SDS011;61559;50.476;15.588;2023-03-01T15:44:41;15.10;;;6.60;;
73107;SDS011;61559;50.476;15.588;2023-03-01T15:47:26;15.60;;;8.00;;